Terminal Aerodrome Forecast
Issued by NWS

Home | Current Version | Previous Version | Text Only | Print | Product List | Glossary On
Versions: 1 2 3 4 5 6 7 8 9 10 11 12 13 14 15
000
FTUS43 KJKL 300853 AAA
TAFSJS
TAF AMD
KSJS 300853Z 3009/3106 25008G18KT 6SM -SHRA BR SCT008 BKN015 OVC050
     FM301300 26005KT P6SM BKN025 OVC035
     FM301500 28008KT P6SM SCT025 BKN035
     FM301900 29006KT P6SM FEW050 BKN250=

USA.gov is the U.S. government's official web portal to all federal, state and local government web resources and services.